Time;durP1;ratioP1;P1;durP2;ratioP2;P2;SDS_P1;SDS_P2;PMS_P1;PMS_P2;Temp;Humidity;BMP_temperature;BMP_pressure;BME280_temperature;BME280_humidity;BME280_pressure;Samples;Min_cycle;Max_cycle;Signal;HPM_P1;HPM_P2
2023/01/28 00:02:17;;;;;;;32.97;18.73;;;-1.20;99.90;;;;;;5043337;28;20116;-86
2023/01/28 00:04:43;;;;;;;34.80;18.90;;;-1.20;99.90;;;;;;5043013;28;20025;-86
2023/01/28 00:07:09;;;;;;;34.97;20.57;;;-1.20;99.90;;;;;;5042784;28;20366;-86
2023/01/28 00:09:34;;;;;;;32.30;18.43;;;-1.20;99.90;;;;;;5043110;28;20021;-83
2023/01/28 00:12:00;;;;;;;33.63;19.03;;;-1.30;99.90;;;;;;5041641;28;20037;-83
2023/01/28 00:14:25;;;;;;;39.43;22.03;;;-1.20;99.90;;;;;;5042489;28;20033;-84
2023/01/28 00:16:51;;;;;;;35.50;19.57;;;-1.20;99.90;;;;;;5042765;28;20021;-84
2023/01/28 00:19:16;;;;;;;44.97;22.83;;;-1.30;99.90;;;;;;5043977;28;20028;-84
2023/01/28 00:21:42;;;;;;;41.63;23.93;;;-1.30;99.90;;;;;;5041686;28;20033;-84
2023/01/28 00:24:08;;;;;;;41.27;23.93;;;-1.30;99.90;;;;;;5042334;28;20374;-85
2023/01/28 00:26:34;;;;;;;37.97;21.80;;;-1.30;99.90;;;;;;5042673;28;20690;-84
2023/01/28 00:29:00;;;;;;;43.40;21.77;;;-1.30;99.90;;;;;;5021388;28;20075;-85
2023/01/28 00:31:26;;;;;;;38.10;21.33;;;-1.30;99.90;;;;;;5044231;28;20025;-84
2023/01/28 00:33:53;;;;;;;37.53;21.10;;;-1.30;99.90;;;;;;5043899;28;20540;-85
2023/01/28 00:36:20;;;;;;;35.67;19.80;;;-1.30;99.90;;;;;;5042889;28;20048;-84
2023/01/28 00:38:56;;;;;;;39.40;20.80;;;-1.30;99.90;;;;;;5026588;28;20029;-84
2023/01/28 00:41:24;;;;;;;36.03;20.50;;;-1.30;99.90;;;;;;5025115;28;20150;-85
2023/01/28 00:43:51;;;;;;;38.57;20.97;;;-1.30;99.90;;;;;;5025669;28;20044;-84
2023/01/28 00:46:17;;;;;;;35.27;20.33;;;-1.30;99.90;;;;;;5036989;28;20478;-85
2023/01/28 00:48:44;;;;;;;35.60;19.90;;;-1.30;99.90;;;;;;5043094;28;20021;-85
2023/01/28 00:51:12;;;;;;;40.70;21.57;;;-1.30;99.90;;;;;;5024460;28;20017;-84
2023/01/28 00:53:38;;;;;;;37.70;20.67;;;-1.30;99.90;;;;;;5041602;28;20489;-84
2023/01/28 00:56:06;;;;;;;41.67;21.30;;;-1.30;99.90;;;;;;5042417;28;20075;-84
2023/01/28 00:58:32;;;;;;;34.40;19.83;;;-1.30;99.90;;;;;;5022652;28;20545;-85
2023/01/28 01:01:14;;;;;;;36.37;21.43;;;-1.30;99.90;;;;;;5021084;28;20029;-85
2023/01/28 01:03:39;;;;;;;39.80;21.93;;;-1.30;99.90;;;;;;5020812;28;20026;-84
2023/01/28 01:06:06;;;;;;;41.07;21.97;;;-1.30;99.90;;;;;;5021478;28;20750;-84
2023/01/28 01:08:34;;;;;;;40.30;20.93;;;-1.30;99.90;;;;;;5020814;28;20025;-84
2023/01/28 01:11:03;;;;;;;42.63;23.43;;;-1.30;99.90;;;;;;5021015;28;20034;-85
2023/01/28 01:13:31;;;;;;;41.73;21.37;;;-1.30;99.90;;;;;;5022628;28;20029;-84
2023/01/28 01:16:05;;;;;;;40.97;23.00;;;-1.30;99.90;;;;;;5020137;28;20394;-84
2023/01/28 01:18:31;;;;;;;41.60;21.97;;;-1.30;99.90;;;;;;5022339;28;20025;-84
2023/01/28 01:20:57;;;;;;;39.37;22.33;;;-1.30;99.90;;;;;;5022505;28;20057;-84
2023/01/28 01:23:28;;;;;;;44.07;22.10;;;-1.40;99.90;;;;;;5021555;28;20167;-84
2023/01/28 01:25:54;;;;;;;41.17;22.23;;;-1.30;99.90;;;;;;5021684;28;20071;-85
2023/01/28 01:28:20;;;;;;;44.57;23.20;;;-1.40;99.90;;;;;;5022442;28;20177;-85
2023/01/28 01:30:47;;;;;;;43.53;21.97;;;-1.30;99.90;;;;;;5024696;28;20041;-85
2023/01/28 01:33:13;;;;;;;45.33;22.63;;;-1.30;99.90;;;;;;5024520;28;20040;-85
2023/01/28 01:35:38;;;;;;;41.37;21.77;;;-1.30;99.90;;;;;;5021694;28;20030;-85
2023/01/28 01:38:04;;;;;;;41.07;22.27;;;-1.30;99.90;;;;;;5025633;28;20468;-85
2023/01/28 01:40:30;;;;;;;41.87;22.73;;;-1.30;99.90;;;;;;5024362;28;20072;-85
2023/01/28 01:42:56;;;;;;;43.87;22.17;;;-1.30;99.90;;;;;;5023112;28;20041;-85
2023/01/28 01:45:21;;;;;;;41.83;23.23;;;-1.30;99.90;;;;;;5022177;28;20029;-85
2023/01/28 01:47:57;;;;;;;45.43;24.43;;;-1.30;99.90;;;;;;5021965;28;20026;-84
2023/01/28 01:50:33;;;;;;;41.43;23.07;;;-1.30;99.90;;;;;;5022447;28;20021;-85
2023/01/28 01:53:11;;;;;;;43.00;22.70;;;-1.30;99.90;;;;;;5021941;28;20544;-85
2023/01/28 01:55:40;;;;;;;42.83;22.60;;;-1.30;99.90;;;;;;5022254;28;20030;-84
2023/01/28 01:58:10;;;;;;;40.97;21.53;;;-1.30;99.90;;;;;;5028432;28;20033;-84
2023/01/28 02:00:36;;;;;;;40.63;21.90;;;-1.30;99.90;;;;;;5042607;28;20037;-85
2023/01/28 02:03:01;;;;;;;39.33;22.43;;;-1.40;99.90;;;;;;5024564;28;20478;-84
2023/01/28 02:05:27;;;;;;;39.47;22.87;;;-1.40;99.90;;;;;;5041569;28;20096;-84
2023/01/28 02:10:40;;;;;;;41.67;22.93;;;-1.40;99.90;;;;;;5041386;28;20768;-84
2023/01/28 02:13:06;;;;;;;39.73;21.80;;;-1.40;99.90;;;;;;5040134;28;20033;-84
2023/01/28 02:15:32;;;;;;;46.63;22.90;;;-1.40;99.90;;;;;;5038857;28;20033;-84
2023/01/28 02:17:58;;;;;;;44.17;22.70;;;-1.40;99.90;;;;;;5040911;28;20048;-84
2023/01/28 02:20:47;;;;;;;40.10;22.20;;;-1.40;99.90;;;;;;5024827;28;20440;-85
2023/01/28 02:23:38;;;;;;;43.83;22.67;;;-1.40;99.90;;;;;;5024761;28;20041;-84
2023/01/28 02:26:23;;;;;;;39.30;21.57;;;-1.40;99.90;;;;;;5039308;28;20022;-84
2023/01/28 02:28:58;;;;;;;42.90;22.93;;;-1.40;99.90;;;;;;5040598;28;20028;-84
2023/01/28 02:31:28;;;;;;;41.80;22.63;;;-1.40;99.90;;;;;;5040878;28;20163;-84
2023/01/28 02:34:08;;;;;;;44.83;23.50;;;-1.40;99.90;;;;;;5041414;28;20027;-84
2023/01/28 02:36:52;;;;;;;46.17;23.40;;;-1.40;99.90;;;;;;5041441;28;20056;-84
2023/01/28 02:39:23;;;;;;;40.77;21.83;;;-1.40;99.90;;;;;;5041086;28;20036;-84
2023/01/28 02:41:54;;;;;;;45.37;22.73;;;-1.40;99.90;;;;;;5040709;28;20581;-85
2023/01/28 02:44:19;;;;;;;44.03;22.90;;;-1.40;99.90;;;;;;5041803;28;20079;-84
2023/01/28 02:49:35;;;;;;;41.90;22.73;;;-1.40;99.90;;;;;;5040295;28;20386;-84
2023/01/28 02:52:07;;;;;;;44.47;24.10;;;-1.40;99.90;;;;;;5038773;28;20029;-84
2023/01/28 02:54:44;;;;;;;42.87;22.93;;;-1.40;99.90;;;;;;5039322;28;20025;-84
2023/01/28 02:57:28;;;;;;;42.67;22.07;;;-1.40;99.90;;;;;;5040501;28;20032;-84
2023/01/28 03:00:00;;;;;;;38.80;21.07;;;-1.40;99.90;;;;;;5023396;28;20108;-84
2023/01/28 03:02:29;;;;;;;37.63;21.00;;;-1.40;99.90;;;;;;5041069;28;20390;-84
2023/01/28 03:05:04;;;;;;;38.27;21.00;;;-1.40;99.90;;;;;;5024146;28;20030;-84
2023/01/28 03:07:34;;;;;;;39.60;21.03;;;-1.40;99.90;;;;;;5022831;28;20030;-84
2023/01/28 03:10:03;;;;;;;35.57;19.97;;;-1.40;99.90;;;;;;5040127;28;20780;-84
2023/01/28 03:38:19;;;;;;;45.27;22.60;;;-1.40;99.90;;;;;;5041099;28;20413;-84
2023/01/28 03:40:59;;;;;;;41.90;21.93;;;-1.40;99.90;;;;;;5028200;28;20025;-84
2023/01/28 03:43:24;;;;;;;39.70;21.43;;;-1.50;99.90;;;;;;5043081;28;20021;-84
2023/01/28 03:45:51;;;;;;;40.27;21.87;;;-1.40;99.90;;;;;;5024833;28;20067;-84
2023/01/28 03:48:18;;;;;;;40.37;22.90;;;-1.40;99.90;;;;;;5040578;28;20028;-84
2023/01/28 03:50:44;;;;;;;43.87;21.67;;;-1.40;99.90;;;;;;5023569;28;20112;-84
2023/01/28 03:53:13;;;;;;;37.03;21.37;;;-1.40;99.90;;;;;;5042130;28;20485;-84
2023/01/28 03:55:38;;;;;;;37.80;20.30;;;-1.40;99.90;;;;;;5042648;28;20021;-84
2023/01/28 03:58:07;;;;;;;40.40;19.97;;;-1.40;99.90;;;;;;5024368;28;20053;-84
2023/01/28 04:00:33;;;;;;;43.13;21.17;;;-1.40;99.90;;;;;;5042126;28;20021;-84
2023/01/28 04:02:59;;;;;;;38.37;21.33;;;-1.40;99.90;;;;;;5041419;28;20456;-84
2023/01/28 04:05:25;;;;;;;37.10;21.07;;;-1.40;99.90;;;;;;5024309;28;20028;-85
2023/01/28 04:07:54;;;;;;;37.40;20.73;;;-1.40;99.90;;;;;;5042679;28;20025;-84
2023/01/28 04:10:20;;;;;;;34.07;18.43;;;-1.40;99.90;;;;;;5042344;28;20013;-84
2023/01/28 04:12:48;;;;;;;35.87;19.87;;;-1.40;99.90;;;;;;5040829;28;20040;-84
2023/01/28 04:15:15;;;;;;;31.30;17.90;;;-1.50;99.90;;;;;;5041121;28;20027;-84
2023/01/28 04:17:47;;;;;;;32.10;17.10;;;-1.50;99.90;;;;;;5041932;28;20029;-84
2023/01/28 04:20:13;;;;;;;32.73;17.53;;;-1.40;99.90;;;;;;5043457;28;20885;-84
2023/01/28 04:22:39;;;;;;;31.53;17.37;;;-1.40;99.90;;;;;;5032471;28;20052;-84
2023/01/28 04:25:06;;;;;;;30.97;17.87;;;-1.50;99.90;;;;;;5048924;28;20017;-85
2023/01/28 04:27:31;;;;;;;30.73;16.87;;;-1.50;99.90;;;;;;5031291;28;20052;-85
2023/01/28 04:29:57;;;;;;;27.60;17.03;;;-1.50;99.90;;;;;;5046591;28;20096;-85
2023/01/28 04:32:22;;;;;;;28.90;17.13;;;-1.50;99.90;;;;;;5047001;28;20470;-85
2023/01/28 04:34:48;;;;;;;28.50;16.17;;;-1.50;99.90;;;;;;5046120;28;20029;-85
2023/01/28 04:37:13;;;;;;;26.77;16.43;;;-1.50;99.90;;;;;;5044469;28;20044;-85
2023/01/28 04:39:39;;;;;;;29.60;17.40;;;-1.50;99.90;;;;;;5023586;28;20430;-85
2023/01/28 04:42:04;;;;;;;28.73;17.83;;;-1.50;99.90;;;;;;5024670;28;20024;-85
2023/01/28 04:44:30;;;;;;;31.53;18.27;;;-1.50;99.90;;;;;;5026716;28;20110;-85
2023/01/28 04:46:55;;;;;;;35.07;17.87;;;-1.40;99.90;;;;;;5043026;28;20117;-85
2023/01/28 04:49:21;;;;;;;35.17;21.63;;;-1.50;99.90;;;;;;5043026;28;20028;-84
2023/01/28 04:51:46;;;;;;;33.90;19.67;;;-1.50;99.90;;;;;;5044239;28;20036;-85
2023/01/28 04:54:12;;;;;;;33.90;20.17;;;-1.50;99.90;;;;;;5026849;28;20027;-85
2023/01/28 04:56:37;;;;;;;31.73;19.00;;;-1.50;99.90;;;;;;5042531;28;20147;-85
2023/01/28 04:59:03;;;;;;;33.50;18.27;;;-1.50;99.90;;;;;;5040728;28;20068;-85
2023/01/28 05:01:29;;;;;;;31.10;17.93;;;-1.40;99.90;;;;;;5043131;28;20033;-85
2023/01/28 05:03:54;;;;;;;29.90;16.90;;;-1.40;99.90;;;;;;5041957;28;20662;-85
2023/01/28 05:06:20;;;;;;;34.47;19.87;;;-1.40;99.90;;;;;;5041063;28;20022;-85
2023/01/28 05:08:48;;;;;;;31.47;17.30;;;-1.40;99.90;;;;;;5042249;28;20036;-85
2023/01/28 05:11:13;;;;;;;32.27;16.70;;;-1.50;99.90;;;;;;5042198;28;20099;-85
2023/01/28 05:13:39;;;;;;;29.73;17.80;;;-1.50;99.90;;;;;;5041368;28;20072;-85
2023/01/28 05:16:05;;;;;;;29.43;18.23;;;-1.50;99.90;;;;;;5041399;28;20086;-85
2023/01/28 05:18:31;;;;;;;27.00;15.73;;;-1.50;99.90;;;;;;5042438;28;20025;-85
2023/01/28 05:20:57;;;;;;;30.93;17.87;;;-1.50;99.90;;;;;;5041155;28;20394;-86
2023/01/28 05:23:22;;;;;;;30.90;18.20;;;-1.50;99.90;;;;;;5024771;28;20017;-86
2023/01/28 05:25:48;;;;;;;31.93;17.37;;;-1.50;99.90;;;;;;5044128;28;20029;-86
2023/01/28 05:28:15;;;;;;;25.20;16.00;;;-1.50;99.90;;;;;;5026678;28;20025;-86
2023/01/28 05:30:40;;;;;;;28.77;16.33;;;-1.50;99.90;;;;;;5042987;28;20025;-85
2023/01/28 05:33:06;;;;;;;26.83;16.03;;;-1.50;99.90;;;;;;5028447;28;20096;-87
2023/01/28 05:35:32;;;;;;;35.20;19.07;;;-1.50;99.90;;;;;;5030326;28;20032;-87
2023/01/28 05:37:58;;;;;;;31.93;17.87;;;-1.50;99.90;;;;;;5045139;28;20028;-86
2023/01/28 05:40:24;;;;;;;29.10;17.50;;;-1.50;99.90;;;;;;5042122;28;20048;-87
2023/01/28 05:42:49;;;;;;;37.70;27.63;;;-1.50;99.90;;;;;;5042446;28;20079;-87
2023/01/28 05:45:15;;;;;;;34.17;22.20;;;-1.50;99.90;;;;;;5047165;28;20017;-80
2023/01/28 05:47:41;;;;;;;38.57;24.33;;;-1.50;99.90;;;;;;5049691;28;20021;-80
2023/01/28 05:50:07;;;;;;;34.80;20.67;;;-1.50;99.90;;;;;;5053715;28;20458;-88
2023/01/28 05:52:33;;;;;;;31.23;16.77;;;-1.50;99.90;;;;;;5042468;28;20071;-80
2023/01/28 05:55:00;;;;;;;27.37;16.23;;;-1.50;99.90;;;;;;5045174;28;20112;-81
2023/01/28 05:57:28;;;;;;;50.10;27.43;;;-1.50;99.90;;;;;;5045198;28;20451;-81
2023/01/28 05:59:53;;;;;;;35.80;20.00;;;-1.40;99.90;;;;;;5035531;28;20028;-81
2023/01/28 06:02:19;;;;;;;42.77;23.80;;;-1.50;99.90;;;;;;5046982;28;20037;-81
2023/01/28 06:04:44;;;;;;;30.43;17.37;;;-1.40;99.90;;;;;;5034191;28;20021;-81
2023/01/28 06:07:12;;;;;;;34.37;18.50;;;-1.40;99.90;;;;;;5045306;28;20026;-81
2023/01/28 06:09:38;;;;;;;32.23;18.63;;;-1.40;99.90;;;;;;5039561;28;20417;-82
2023/01/28 06:12:04;;;;;;;31.93;18.93;;;-1.40;99.90;;;;;;5041752;28;20390;-80
2023/01/28 06:14:30;;;;;;;30.10;17.33;;;-1.40;99.90;;;;;;5046192;28;20086;-81
2023/01/28 06:16:55;;;;;;;31.70;18.80;;;-1.40;99.90;;;;;;5045026;28;20063;-81
2023/01/28 06:19:21;;;;;;;34.53;17.50;;;-1.40;99.90;;;;;;5024366;28;20397;-77
2023/01/28 06:21:47;;;;;;;30.80;17.87;;;-1.40;99.90;;;;;;5041853;28;20132;-77
2023/01/28 06:24:13;;;;;;;30.10;16.57;;;-1.40;99.90;;;;;;5041514;28;20123;-77
2023/01/28 06:26:38;;;;;;;28.60;17.33;;;-1.40;99.90;;;;;;5042596;28;21569;-78
2023/01/28 06:29:04;;;;;;;35.63;19.17;;;-1.40;99.90;;;;;;5041468;28;20028;-77
2023/01/28 06:31:30;;;;;;;34.40;18.53;;;-1.40;99.90;;;;;;5040890;28;20033;-78
2023/01/28 06:33:55;;;;;;;32.03;18.37;;;-1.40;99.90;;;;;;5040223;28;20037;-77
2023/01/28 06:36:21;;;;;;;28.37;16.43;;;-1.40;99.90;;;;;;5024652;28;20096;-77
2023/01/28 06:38:47;;;;;;;32.47;17.57;;;-1.40;99.90;;;;;;5025721;28;20025;-77
2023/01/28 06:41:12;;;;;;;28.33;16.93;;;-1.40;99.90;;;;;;5040919;28;20087;-77
2023/01/28 06:43:38;;;;;;;33.77;18.80;;;-1.40;99.90;;;;;;5041675;28;20025;-77
2023/01/28 06:46:04;;;;;;;32.20;17.93;;;-1.40;99.90;;;;;;5039355;28;20025;-77
2023/01/28 06:48:30;;;;;;;32.27;19.27;;;-1.40;99.90;;;;;;5040687;28;20036;-77
2023/01/28 06:50:59;;;;;;;33.07;18.47;;;-1.40;99.90;;;;;;5040179;28;20037;-77
2023/01/28 06:53:24;;;;;;;37.50;20.80;;;-1.40;99.90;;;;;;5041476;28;20033;-77
2023/01/28 06:55:50;;;;;;;45.67;25.83;;;-1.50;99.90;;;;;;5023447;28;20378;-77
2023/01/28 06:58:16;;;;;;;39.13;22.53;;;-1.50;99.90;;;;;;5041102;28;20049;-77
2023/01/28 07:00:41;;;;;;;35.13;19.47;;;-1.50;99.90;;;;;;5024868;28;20046;-77
2023/01/28 07:03:10;;;;;;;34.73;19.90;;;-1.40;99.90;;;;;;5040376;28;20028;-77
2023/01/28 07:05:35;;;;;;;37.07;20.37;;;-1.40;99.90;;;;;;5044463;28;20024;-77
2023/01/28 07:08:01;;;;;;;33.47;18.80;;;-1.40;99.90;;;;;;5029725;28;20542;-77
2023/01/28 07:10:27;;;;;;;34.07;18.50;;;-1.40;99.90;;;;;;5042727;28;20025;-77
2023/01/28 07:12:53;;;;;;;32.57;18.70;;;-1.40;99.90;;;;;;5044900;28;20025;-77
2023/01/28 07:15:19;;;;;;;37.03;19.40;;;-1.40;99.90;;;;;;5043548;28;20785;-77
2023/01/28 07:17:44;;;;;;;36.40;19.10;;;-1.40;99.90;;;;;;5029878;28;20025;-77
2023/01/28 07:20:13;;;;;;;32.03;18.13;;;-1.40;99.90;;;;;;5044075;28;20546;-77
2023/01/28 07:22:43;;;;;;;34.27;19.67;;;-1.30;99.90;;;;;;5042880;28;20113;-77
2023/01/28 07:25:09;;;;;;;35.27;19.90;;;-1.30;99.90;;;;;;5044350;28;20083;-77
2023/01/28 07:27:35;;;;;;;33.97;18.37;;;-1.30;99.90;;;;;;5046297;28;20047;-77
2023/01/28 07:30:01;;;;;;;40.00;21.03;;;-1.30;99.90;;;;;;5045202;28;20053;-77
2023/01/28 07:32:27;;;;;;;37.63;20.17;;;-1.30;99.90;;;;;;5028098;28;20021;-77
2023/01/28 07:34:53;;;;;;;33.97;18.60;;;-1.30;99.90;;;;;;5046410;28;20036;-77
2023/01/28 07:37:19;;;;;;;32.80;18.87;;;-1.30;99.90;;;;;;5028798;28;20033;-77
2023/01/28 07:39:47;;;;;;;33.57;19.50;;;-1.30;99.90;;;;;;5044116;28;20044;-77
2023/01/28 07:42:12;;;;;;;34.20;19.13;;;-1.20;99.90;;;;;;5023348;28;20484;-77
2023/01/28 07:44:38;;;;;;;33.90;19.63;;;-1.20;99.90;;;;;;5045702;28;20120;-77
2023/01/28 07:47:12;;;;;;;34.20;19.80;;;-1.20;99.90;;;;;;5027012;28;20021;-77
2023/01/28 07:49:40;;;;;;;35.93;19.83;;;-1.20;99.90;;;;;;5044446;28;20030;-77
2023/01/28 07:52:08;;;;;;;33.13;18.43;;;-1.20;99.90;;;;;;5043559;28;20091;-77
2023/01/28 07:54:34;;;;;;;31.27;18.47;;;-1.20;99.90;;;;;;5043906;28;20030;-77
2023/01/28 07:57:00;;;;;;;31.77;17.93;;;-1.20;99.90;;;;;;5044534;28;20371;-76
2023/01/28 07:59:25;;;;;;;35.80;19.70;;;-1.20;99.90;;;;;;5043121;28;20099;-76
2023/01/28 08:01:52;;;;;;;31.73;18.53;;;-1.20;99.90;;;;;;5022203;28;20136;-77
2023/01/28 08:04:18;;;;;;;31.67;17.27;;;-1.20;99.90;;;;;;5044248;28;20095;-76
2023/01/28 08:06:44;;;;;;;37.67;18.27;;;-1.20;99.90;;;;;;5044988;28;20016;-77
2023/01/28 08:09:09;;;;;;;30.13;17.03;;;-1.10;99.90;;;;;;5042913;28;20033;-76
2023/01/28 08:11:37;;;;;;;35.80;17.77;;;-1.10;99.90;;;;;;5044086;28;20059;-77
2023/01/28 08:14:03;;;;;;;31.07;17.53;;;-1.10;99.90;;;;;;5043621;28;20094;-77
2023/01/28 08:16:31;;;;;;;31.23;16.70;;;-1.10;99.90;;;;;;5041147;28;20064;-76
2023/01/28 08:18:56;;;;;;;31.83;17.40;;;-1.10;99.90;;;;;;5043183;28;20032;-76
2023/01/28 08:21:22;;;;;;;34.00;19.17;;;-1.10;99.90;;;;;;5042831;28;20025;-76
2023/01/28 08:23:50;;;;;;;34.43;18.53;;;-1.10;99.90;;;;;;5042349;28;20553;-76
2023/01/28 08:26:23;;;;;;;31.93;18.67;;;-1.10;99.90;;;;;;5044717;28;20028;-76
2023/01/28 08:28:48;;;;;;;32.80;18.40;;;-1.10;99.90;;;;;;5027081;28;20341;-76
2023/01/28 08:31:14;;;;;;;36.13;18.33;;;-1.00;99.90;;;;;;5026359;28;20037;-77
2023/01/28 08:33:40;;;;;;;31.60;17.77;;;-1.00;99.90;;;;;;5026314;28;20032;-77
2023/01/28 08:36:06;;;;;;;32.20;18.30;;;-1.00;99.90;;;;;;5042448;28;20029;-76
2023/01/28 08:38:31;;;;;;;34.13;19.57;;;-1.00;99.90;;;;;;5042528;28;20112;-77
2023/01/28 08:40:58;;;;;;;33.43;18.00;;;-1.00;99.90;;;;;;5026921;28;20036;-76
2023/01/28 08:43:24;;;;;;;34.07;18.80;;;-1.00;99.90;;;;;;5042654;28;20036;-77
2023/01/28 08:45:50;;;;;;;32.97;18.20;;;-1.00;99.90;;;;;;5028277;28;20025;-76
2023/01/28 08:48:20;;;;;;;31.40;18.17;;;-1.00;99.90;;;;;;5042981;28;20036;-76
2023/01/28 08:50:46;;;;;;;29.63;17.43;;;-1.00;99.90;;;;;;5043334;28;20674;-77
2023/01/28 08:53:15;;;;;;;33.67;17.73;;;-1.00;99.90;;;;;;5042420;28;20029;-76
2023/01/28 08:55:41;;;;;;;32.07;18.83;;;-0.90;99.90;;;;;;5042837;28;20045;-76
2023/01/28 08:58:11;;;;;;;29.50;18.33;;;-0.90;99.90;;;;;;5040792;28;20053;-76
2023/01/28 09:00:37;;;;;;;28.93;17.47;;;-0.90;99.90;;;;;;5040636;28;20025;-77
2023/01/28 09:03:03;;;;;;;31.87;18.53;;;-0.80;99.90;;;;;;5042416;28;20026;-76
2023/01/28 09:05:31;;;;;;;31.13;18.50;;;-0.80;99.90;;;;;;5043934;28;20040;-76
2023/01/28 09:07:59;;;;;;;31.73;18.10;;;-0.70;99.90;;;;;;5043744;28;20104;-77
2023/01/28 09:10:25;;;;;;;29.23;17.73;;;-0.70;99.90;;;;;;5042605;28;20488;-77
2023/01/28 09:12:50;;;;;;;32.70;18.60;;;-0.60;99.90;;;;;;5044607;28;20104;-76
2023/01/28 09:15:16;;;;;;;33.53;19.43;;;-0.60;99.90;;;;;;5027282;28;20025;-76
2023/01/28 09:17:42;;;;;;;34.50;20.07;;;-0.50;99.90;;;;;;5040608;28;20033;-77
2023/01/28 09:20:08;;;;;;;38.37;21.87;;;-0.50;99.90;;;;;;5040207;28;20036;-76
2023/01/28 09:22:34;;;;;;;58.80;36.93;;;-0.50;99.90;;;;;;5042464;28;20064;-76
2023/01/28 09:25:02;;;;;;;38.93;22.40;;;-0.40;99.90;;;;;;5040813;28;20447;-76
2023/01/28 09:27:27;;;;;;;41.80;26.03;;;-0.40;99.90;;;;;;5040830;28;20474;-77
2023/01/28 09:29:53;;;;;;;35.33;22.77;;;-0.40;99.90;;;;;;5024067;28;20029;-76
2023/01/28 09:32:21;;;;;;;40.17;24.90;;;-0.40;99.90;;;;;;5043772;28;20572;-77
2023/01/28 09:34:46;;;;;;;31.53;20.60;;;-0.40;99.90;;;;;;5030517;28;20025;-76
2023/01/28 09:37:12;;;;;;;35.43;22.67;;;-0.30;99.90;;;;;;5044773;28;20044;-76
2023/01/28 09:39:37;;;;;;;35.97;21.63;;;-0.30;99.90;;;;;;5029193;28;20028;-76
2023/01/28 09:42:42;;;;;;;37.33;21.53;;;-0.30;99.90;;;;;;5041854;28;20056;-76
2023/01/28 09:45:18;;;;;;;38.40;22.93;;;-0.20;99.90;;;;;;5043005;28;20013;-76
2023/01/28 09:47:51;;;;;;;34.07;20.10;;;-0.20;99.90;;;;;;5041383;28;20017;-76
2023/01/28 09:50:24;;;;;;;29.50;18.90;;;-0.30;99.90;;;;;;5027185;28;20358;-76
2023/01/28 09:52:54;;;;;;;30.83;19.33;;;-0.20;99.90;;;;;;5041518;28;20331;-76
2023/01/28 09:55:43;;;;;;;29.80;19.00;;;-0.20;99.90;;;;;;5040335;28;20041;-76
2023/01/28 09:58:14;;;;;;;32.77;21.10;;;-0.20;99.90;;;;;;5025153;28;20545;-76
2023/01/28 10:01:03;;;;;;;27.00;16.77;;;-0.20;99.90;;;;;;5040950;28;20021;-76
2023/01/28 10:03:37;;;;;;;27.90;17.97;;;-0.10;99.90;;;;;;5042013;28;20033;-76
2023/01/28 10:06:31;;;;;;;29.08;16.70;;;-0.10;99.90;;;;;;5035801;28;20024;-76
2023/01/28 10:09:13;;;;;;;26.50;15.53;;;-0.10;99.90;;;;;;5040408;28;20026;-76
2023/01/28 10:12:12;;;;;;;26.47;15.77;;;-0.10;99.90;;;;;;5040128;28;20078;-76
2023/01/28 10:14:53;;;;;;;26.50;15.80;;;-0.10;99.90;;;;;;5024952;28;20033;-76
2023/01/28 10:17:35;;;;;;;27.80;15.70;;;0.00;99.90;;;;;;5041060;28;20160;-76
2023/01/28 10:20:31;;;;;;;26.20;16.30;;;0.00;99.90;;;;;;5040100;28;20413;-76
2023/01/28 10:23:03;;;;;;;;;;;0.20;99.90;;;;;;5041594;28;20070;-76
2023/01/28 10:25:30;;;;;;;24.70;14.63;;;0.30;99.90;;;;;;5040313;28;20954;-76
2023/01/28 10:27:56;;;;;;;23.67;15.03;;;0.40;99.90;;;;;;5042132;28;20024;-76
2023/01/28 10:30:28;;;;;;;24.13;14.80;;;0.50;99.90;;;;;;5041126;28;20370;-76
2023/01/28 10:33:09;;;;;;;25.33;15.60;;;0.60;99.90;;;;;;5040776;28;20012;-76
2023/01/28 10:35:40;;;;;;;25.00;14.07;;;0.60;99.90;;;;;;5041012;28;20021;-76
2023/01/28 10:38:09;;;;;;;25.90;15.10;;;0.60;99.90;;;;;;5042409;28;20377;-76
2023/01/28 10:40:39;;;;;;;24.27;14.57;;;0.70;99.90;;;;;;5040261;28;20021;-76
2023/01/28 10:43:07;;;;;;;22.10;13.53;;;0.70;99.90;;;;;;5026005;28;20112;-76
2023/01/28 10:46:00;;;;;;;24.10;15.67;;;0.70;99.90;;;;;;5041940;28;20017;-76
2023/01/28 10:48:31;;;;;;;24.30;14.30;;;0.70;99.90;;;;;;5043081;28;20017;-76
2023/01/28 10:51:01;;;;;;;21.40;13.23;;;0.80;99.90;;;;;;5042472;28;20040;-76
2023/01/28 10:53:53;;;;;;;22.87;13.83;;;0.80;99.90;;;;;;5045435;28;20374;-76
2023/01/28 10:56:30;;;;;;;23.13;14.30;;;0.70;99.90;;;;;;5039458;28;20512;-76
2023/01/28 10:58:58;;;;;;;22.63;12.53;;;0.70;99.90;;;;;;5041051;28;20071;-76
2023/01/28 11:01:24;;;;;;;21.70;12.97;;;0.70;99.90;;;;;;5026571;28;20489;-76
2023/01/28 11:04:19;;;;;;;22.33;12.63;;;0.70;99.90;;;;;;5041101;28;20104;-76
2023/01/28 11:06:54;;;;;;;20.77;12.93;;;0.70;99.90;;;;;;5043636;28;20019;-76
2023/01/28 11:09:25;;;;;;;20.57;13.27;;;0.70;99.90;;;;;;5026639;28;20029;-76
2023/01/28 11:11:50;;;;;;;21.73;13.20;;;0.60;99.90;;;;;;5040940;28;20775;-76
2023/01/28 11:14:21;;;;;;;23.17;13.00;;;0.60;99.90;;;;;;5042766;28;20017;-76
2023/01/28 11:16:47;;;;;;;19.73;12.97;;;0.70;99.90;;;;;;5043249;28;20092;-76
2023/01/28 11:19:14;;;;;;;19.20;11.83;;;0.70;99.90;;;;;;5041998;28;20067;-76
2023/01/28 11:21:47;;;;;;;19.67;12.43;;;0.70;99.90;;;;;;5041974;28;20067;-76
2023/01/28 11:24:18;;;;;;;21.80;13.73;;;0.80;99.90;;;;;;5042591;28;20086;-76
2023/01/28 11:26:48;;;;;;;19.10;12.10;;;0.90;99.90;;;;;;5021200;28;20018;-76
2023/01/28 11:29:25;;;;;;;20.33;12.10;;;1.00;99.90;;;;;;5024676;28;20108;-76
2023/01/28 11:31:51;;;;;;;31.07;19.20;;;1.00;99.90;;;;;;5042526;28;20017;-76
2023/01/28 11:34:18;;;;;;;25.60;15.43;;;1.00;99.90;;;;;;5041681;28;20028;-76
2023/01/28 11:36:52;;;;;;;22.30;14.17;;;1.00;99.90;;;;;;5042577;28;20096;-76
2023/01/28 11:39:27;;;;;;;22.70;13.65;;;1.00;99.90;;;;;;5042742;28;20029;-76
2023/01/28 11:41:53;;;;;;;20.73;13.38;;;1.00;99.90;;;;;;5043205;28;21019;-76
2023/01/28 11:44:23;;;;;;;23.37;14.73;;;1.00;99.90;;;;;;5023345;28;20021;-76
2023/01/28 11:47:00;;;;;;;23.50;14.27;;;0.90;99.90;;;;;;5040778;28;20059;-76
2023/01/28 11:49:36;;;;;;;24.50;14.03;;;0.80;99.90;;;;;;5026254;28;20036;-76
2023/01/28 11:52:27;;;;;;;22.67;13.60;;;0.90;99.90;;;;;;5028552;28;20030;-76
2023/01/28 11:55:09;;;;;;;23.93;14.73;;;0.90;99.90;;;;;;5044691;28;20045;-76
2023/01/28 11:57:50;;;;;;;23.83;15.17;;;0.80;99.90;;;;;;5045664;28;20528;-76
2023/01/28 12:00:44;;;;;;;25.87;16.03;;;0.80;99.90;;;;;;5042584;28;20017;-76
2023/01/28 12:03:15;;;;;;;22.27;13.70;;;0.80;99.90;;;;;;5045486;28;20044;-76
2023/01/28 12:06:18;;;;;;;21.27;13.50;;;0.70;99.90;;;;;;5045563;28;20339;-76
2023/01/28 12:08:56;;;;;;;23.63;14.87;;;0.60;99.90;;;;;;5027742;28;20013;-76
2023/01/28 12:12:11;;;;;;;20.83;13.67;;;0.60;99.90;;;;;;5042758;28;20031;-76
2023/01/28 12:14:43;;;;;;;21.60;14.80;;;0.50;99.90;;;;;;5028933;28;20028;-76
2023/01/28 12:17:14;;;;;;;19.87;12.87;;;0.50;99.90;;;;;;5045136;28;20496;-76
2023/01/28 12:19:46;;;;;;;20.53;13.27;;;0.50;99.90;;;;;;5044829;28;20035;-76
2023/01/28 12:22:38;;;;;;;22.17;13.93;;;0.50;99.90;;;;;;5044526;28;20493;-76
2023/01/28 12:25:26;;;;;;;21.23;14.40;;;0.50;99.90;;;;;;5043249;28;20101;-76
2023/01/28 12:27:57;;;;;;;25.93;15.00;;;0.50;99.90;;;;;;5046498;28;20029;-77
2023/01/28 12:30:38;;;;;;;25.03;14.43;;;0.60;99.90;;;;;;5028680;28;20017;-76
2023/01/28 12:33:10;;;;;;;24.27;15.23;;;0.60;99.90;;;;;;5046027;28;20025;-76
2023/01/28 12:35:43;;;;;;;23.10;14.87;;;0.60;99.90;;;;;;5045410;28;20595;-77
2023/01/28 12:38:35;;;;;;;19.90;12.40;;;0.60;99.90;;;;;;5043160;28;20191;-76
2023/01/28 12:41:12;;;;;;;22.67;13.70;;;0.60;99.90;;;;;;5027748;28;20017;-76
2023/01/28 12:43:48;;;;;;;22.27;12.90;;;0.70;99.90;;;;;;5046594;28;20013;-78
2023/01/28 12:46:28;;;;;;;21.30;13.43;;;0.70;99.90;;;;;;5045668;28;20104;-76
2023/01/28 12:49:13;;;;;;;18.67;12.50;;;0.70;99.90;;;;;;5047372;28;20021;-76
2023/01/28 12:52:06;;;;;;;19.27;12.38;;;0.70;99.90;;;;;;5046032;28;20029;-76
2023/01/28 12:54:54;;;;;;;19.60;12.50;;;0.70;99.90;;;;;;5043312;28;20068;-76
2023/01/28 12:57:29;;;;;;;19.27;12.43;;;0.70;99.90;;;;;;5042682;28;21482;-76
2023/01/28 13:00:05;;;;;;;19.67;12.20;;;0.70;99.90;;;;;;5029963;28;20082;-76
2023/01/28 13:02:41;;;;;;;18.87;11.73;;;0.70;99.90;;;;;;5042667;28;20029;-76
2023/01/28 13:05:14;;;;;;;19.87;11.70;;;0.70;99.90;;;;;;5042733;28;20019;-76
2023/01/28 13:07:57;;;;;;;18.50;12.00;;;0.70;99.90;;;;;;5022400;28;20106;-76
2023/01/28 13:10:35;;;;;;;16.80;10.20;;;0.70;99.90;;;;;;5044823;28;20055;-77
2023/01/28 13:13:03;;;;;;;20.40;11.13;;;0.70;99.90;;;;;;5043778;28;20014;-77
2023/01/28 13:15:31;;;;;;;16.53;9.97;;;0.70;99.90;;;;;;5044017;28;20029;-77
2023/01/28 13:18:03;;;;;;;17.37;10.77;;;0.70;99.90;;;;;;5042398;28;20028;-77